Time;durP1;ratioP1;P1;durP2;ratioP2;P2;SDS_P1;SDS_P2;PMS_P1;PMS_P2;Temp;Humidity;BMP_temperature;BMP_pressure;BME280_temperature;BME280_humidity;BME280_pressure;Samples;Min_cycle;Max_cycle;Signal;HPM_P1;HPM_P2
2022/10/21 00:01:19;;;;;;;;;;;;;;;;;;5044322;28;2842;-68
2022/10/21 00:03:44;;;;;;;;;;;;;;;;;;5045329;28;4831;-69
2022/10/21 00:06:10;;;;;;;;;;;;;;;;;;5023926;28;5099;-66
2022/10/21 00:08:35;;;;;;;;;;;;;;;;;;5035577;28;5079;-67
2022/10/21 00:11:01;;;;;;;;;;;;;;;;;;5032020;28;4957;-63
2022/10/21 00:13:27;;;;;;;;;;;;;;;;;;5041877;28;2943;-60
2022/10/21 00:16:05;;;;;;;;;;;;;;;;;;5049494;28;5609;-67
2022/10/21 00:18:31;;;;;;;;;;;;;;;;;;5047949;28;4706;-68
2022/10/21 00:20:56;;;;;;;;;;;;;;;;;;5034471;28;4966;-68
2022/10/21 00:23:22;;;;;;;;;;;;;;;;;;5049018;28;4716;-68
2022/10/21 00:25:47;;;;;;;;;;;;;;;;;;5046032;28;5753;-67
2022/10/21 00:28:12;;;;;;;;;;;;;;;;;;5051179;28;1975;-68
2022/10/21 00:30:41;;;;;;;;;;;;;;;;;;5051117;28;5038;-64
2022/10/21 00:33:06;;;;;;;;;;;;;;;;;;5007238;28;5083;-68
2022/10/21 00:35:33;;;;;;;;;;;;;;;;;;5024565;28;5000;-69
2022/10/21 00:37:58;;;;;;;;;;;;;;;;;;5029288;28;4781;-68
2022/10/21 00:40:23;;;;;;;;;;;;;;;;;;5031491;28;3006;-69
2022/10/21 00:42:48;;;;;;;;;;;;;;;;;;5034418;28;5001;-66
2022/10/21 00:45:18;;;;;;;;;;;;;;;;;;5030399;28;5018;-67
2022/10/21 00:47:44;;;;;;;;;;;;;;;;;;5034414;28;4722;-66
2022/10/21 00:50:16;;;;;;;;;;;;;;;;;;5021113;28;4929;-65
2022/10/21 00:52:42;;;;;;;;;;;;;;;;;;5013254;28;1214;-67
2022/10/21 00:55:07;;;;;;;;;;;;;;;;;;5002859;28;5103;-61
2022/10/21 00:57:32;;;;;;;;;;;;;;;;;;5012749;28;4555;-65
2022/10/21 00:59:58;;;;;;;;;;;;;;;;;;5043118;28;5180;-67
2022/10/21 01:02:24;;;;;;;;;;;;;;;;;;5016554;28;5006;-67
2022/10/21 01:04:52;;;;;;;;;;;;;;;;;;5023805;28;4919;-67
2022/10/21 01:07:17;;;;;;;;;;;;;;;;;;5030790;28;1906;-66
2022/10/21 01:09:43;;;;;;;;;;;;;;;;;;4999195;28;4978;-66
2022/10/21 01:12:10;;;;;;;;;;;;;;;;;;5042176;28;5082;-68
2022/10/21 01:14:36;;;;;;;;;;;;;;;;;;5035760;28;4981;-66
2022/10/21 01:17:19;;;;;;;;;;;;;;;;;;5019864;28;5319;-67
2022/10/21 01:19:48;;;;;;;;;;;;;;;;;;5041250;28;4900;-64
2022/10/21 01:22:25;;;;;;;;;;;;;;;;;;5042185;28;3409;-67
2022/10/21 01:24:50;;;;;;;;;;;;;;;;;;5049959;28;4498;-66
2022/10/21 01:27:16;;;;;;;;;;;;;;;;;;5037473;28;5028;-68
2022/10/21 01:29:53;;;;;;;;;;;;;;;;;;5049802;28;4611;-66
2022/10/21 01:32:31;;;;;;;;;;;;;;;;;;5043797;28;5030;-68
2022/10/21 01:34:57;;;;;;;;;;;;;;;;;;5033110;28;5036;-66
2022/10/21 01:37:22;;;;;;;;;;;;;;;;;;5016022;28;916;-66
2022/10/21 01:39:51;;;;;;;;;;;;;;;;;;5043685;28;4966;-67
2022/10/21 01:42:24;;;;;;;;;;;;;;;;;;5040785;28;5219;-69
2022/10/21 01:44:51;;;;;;;;;;;;;;;;;;5019720;28;4879;-70
2022/10/21 01:47:18;;;;;;;;;;;;;;;;;;5010909;28;5052;-69
2022/10/21 01:49:52;;;;;;;;;;;;;;;;;;5026900;28;4561;-67
2022/10/21 01:52:17;;;;;;;;;;;;;;;;;;4992429;28;5078;-66
2022/10/21 01:54:43;;;;;;;;;;;;;;;;;;5038920;28;5127;-65
2022/10/21 01:57:09;;;;;;;;;;;;;;;;;;5026513;28;5014;-64
2022/10/21 01:59:34;;;;;;;;;;;;;;;;;;5028949;28;5148;-66
2022/10/21 02:02:00;;;;;;;;;;;;;;;;;;5022296;28;4876;-68
2022/10/21 02:04:25;;;;;;;;;;;;;;;;;;5043189;28;2909;-68
2022/10/21 02:06:51;;;;;;;;;;;;;;;;;;5043574;28;5007;-66
2022/10/21 02:09:16;;;;;;;;;;;;;;;;;;5044996;28;5156;-66
2022/10/21 02:11:41;;;;;;;;;;;;;;;;;;5051587;28;4812;-67
2022/10/21 02:14:13;;;;;;;;;;;;;;;;;;5033364;28;4499;-68
2022/10/21 02:16:39;;;;;;;;;;;;;;;;;;5031477;28;1072;-68
2022/10/21 02:19:05;;;;;;;;;;;;;;;;;;5048964;28;4894;-66
2022/10/21 02:21:31;;;;;;;;;;;;;;;;;;5032180;28;5034;-61
2022/10/21 02:24:09;;;;;;;;;;;;;;;;;;5027632;28;5281;-65
2022/10/21 02:26:34;;;;;;;;;;;;;;;;;;5031227;28;5068;-65
2022/10/21 02:28:59;;;;;;;;;;;;;;;;;;5048886;28;5065;-68
2022/10/21 02:31:43;;;;;;;;;;;;;;;;;;5031115;28;1113;-68
2022/10/21 02:34:16;;;;;;;;;;;;;;;;;;5048061;28;5323;-64
2022/10/21 02:36:42;;;;;;;;;;;;;;;;;;5045305;28;5021;-66
2022/10/21 02:39:12;;;;;;;;;;;;;;;;;;5044555;28;4594;-64
2022/10/21 02:41:37;;;;;;;;;;;;;;;;;;5037155;28;4929;-60
2022/10/21 02:44:02;;;;;;;;;;;;;;;;;;5043914;28;5166;-67
2022/10/21 02:46:37;;;;;;;;;;;;;;;;;;5047609;28;1007;-68
2022/10/21 02:49:02;;;;;;;;;;;;;;;;;;5046770;28;5065;-67
2022/10/21 02:51:27;;;;;;;;;;;;;;;;;;5043023;28;5119;-66
2022/10/21 02:53:53;;;;;;;;;;;;;;;;;;5057469;28;4454;-69
2022/10/21 02:56:18;;;;;;;;;;;;;;;;;;5048514;28;4835;-67
2022/10/21 02:58:43;;;;;;;;;;;;;;;;;;5058736;28;2181;-66
2022/10/21 03:01:08;;;;;;;;;;;;;;;;;;5068695;28;4933;-66
2022/10/21 03:03:34;;;;;;;;;;;;;;;;;;5055551;28;4613;-67
2022/10/21 03:05:59;;;;;;;;;;;;;;;;;;5068539;28;4936;-68
2022/10/21 03:08:24;;;;;;;;;;;;;;;;;;5046668;28;5118;-68
2022/10/21 03:10:50;;;;;;;;;;;;;;;;;;5048436;28;4663;-66
2022/10/21 03:13:15;;;;;;;;;;;;;;;;;;5045805;28;2822;-67
2022/10/21 03:15:40;;;;;;;;;;;;;;;;;;5026538;28;5036;-67
2022/10/21 03:18:06;;;;;;;;;;;;;;;;;;5062871;28;5009;-68
2022/10/21 03:20:31;;;;;;;;;;;;;;;;;;5051750;28;5177;-68
2022/10/21 03:22:56;;;;;;;;;;;;;;;;;;5027998;28;4450;-68
2022/10/21 03:25:21;;;;;;;;;;;;;;;;;;5047699;28;2816;-68
2022/10/21 03:27:48;;;;;;;;;;;;;;;;;;5071904;28;4879;-70
2022/10/21 03:30:14;;;;;;;;;;;;;;;;;;5054611;28;5234;-69
2022/10/21 03:32:39;;;;;;;;;;;;;;;;;;5068843;28;4928;-67
2022/10/21 03:35:04;;;;;;;;;;;;;;;;;;5063321;28;4956;-67
2022/10/21 03:37:30;;;;;;;;;;;;;;;;;;5054875;28;2860;-68
2022/10/21 03:39:55;;;;;;;;;;;;;;;;;;5061894;28;4958;-69
2022/10/21 03:42:20;;;;;;;;;;;;;;;;;;5066976;28;5485;-67
2022/10/21 03:44:45;;;;;;;;;;;;;;;;;;5052117;28;5004;-69
2022/10/21 03:47:11;;;;;;;;;;;;;;;;;;5056807;28;4578;-68
2022/10/21 03:49:36;;;;;;;;;;;;;;;;;;5047381;28;4801;-66
2022/10/21 03:52:01;;;;;;;;;;;;;;;;;;5034030;28;5133;-68
2022/10/21 03:54:26;;;;;;;;;;;;;;;;;;5053162;28;4983;-69
2022/10/21 03:56:51;;;;;;;;;;;;;;;;;;5050651;28;4937;-69
2022/10/21 03:59:17;;;;;;;;;;;;;;;;;;5048394;28;5075;-67
2022/10/21 04:01:42;;;;;;;;;;;;;;;;;;5065329;28;2060;-68
2022/10/21 04:04:14;;;;;;;;;;;;;;;;;;5050108;28;5060;-57
2022/10/21 04:06:39;;;;;;;;;;;;;;;;;;5071219;28;5079;-68
2022/10/21 04:09:04;;;;;;;;;;;;;;;;;;5051833;28;5643;-61
2022/10/21 04:11:29;;;;;;;;;;;;;;;;;;5049909;28;4715;-68
2022/10/21 04:13:55;;;;;;;;;;;;;;;;;;5050816;28;4963;-60
2022/10/21 04:16:20;;;;;;;;;;;;;;;;;;5068027;28;3185;-68
2022/10/21 04:18:45;;;;;;;;;;;;;;;;;;5055196;28;5039;-66
2022/10/21 04:21:11;;;;;;;;;;;;;;;;;;5036466;28;4923;-69
2022/10/21 04:23:36;;;;;;;;;;;;;;;;;;5031182;28;5280;-68
2022/10/21 04:26:01;;;;;;;;;;;;;;;;;;5045520;28;5087;-67
2022/10/21 04:28:27;;;;;;;;;;;;;;;;;;5062537;28;2048;-58
2022/10/21 04:30:52;;;;;;;;;;;;;;;;;;5058629;28;4453;-67
2022/10/21 04:33:17;;;;;;;;;;;;;;;;;;5053203;28;5141;-66
2022/10/21 04:35:42;;;;;;;;;;;;;;;;;;5049735;28;5075;-65
2022/10/21 04:38:08;;;;;;;;;;;;;;;;;;5047953;28;5020;-61
2022/10/21 04:40:33;;;;;;;;;;;;;;;;;;5061415;28;3063;-70
2022/10/21 04:42:58;;;;;;;;;;;;;;;;;;5052644;28;4816;-68
2022/10/21 04:45:23;;;;;;;;;;;;;;;;;;5050671;28;5036;-68
2022/10/21 04:47:49;;;;;;;;;;;;;;;;;;5050168;28;4954;-68
2022/10/21 04:50:14;;;;;;;;;;;;;;;;;;5048479;28;5125;-63
2022/10/21 04:52:39;;;;;;;;;;;;;;;;;;5030975;28;1010;-69
2022/10/21 04:55:05;;;;;;;;;;;;;;;;;;5030335;28;4778;-69
2022/10/21 04:57:30;;;;;;;;;;;;;;;;;;5022296;28;4722;-67
2022/10/21 04:59:55;;;;;;;;;;;;;;;;;;5039775;28;5108;-68
2022/10/21 05:02:21;;;;;;;;;;;;;;;;;;5066963;28;5079;-66
2022/10/21 05:04:47;;;;;;;;;;;;;;;;;;5069881;28;4585;-68
2022/10/21 05:07:12;;;;;;;;;;;;;;;;;;5053421;28;2893;-69
2022/10/21 05:09:37;;;;;;;;;;;;;;;;;;5060889;28;4536;-67
2022/10/21 05:12:02;;;;;;;;;;;;;;;;;;5060608;28;4826;-65
2022/10/21 05:14:28;;;;;;;;;;;;;;;;;;5051957;28;4446;-67
2022/10/21 05:16:53;;;;;;;;;;;;;;;;;;5070340;28;4902;-68
2022/10/21 05:19:18;;;;;;;;;;;;;;;;;;5070968;28;952;-68
2022/10/21 05:21:57;;;;;;;;;;;;;;;;;;5054042;28;5320;-68
2022/10/21 05:24:22;;;;;;;;;;;;;;;;;;5064812;28;4584;-68
2022/10/21 05:26:47;;;;;;;;;;;;;;;;;;5056645;28;5083;-67
2022/10/21 05:29:13;;;;;;;;;;;;;;;;;;5043013;28;5995;-67
2022/10/21 05:31:38;;;;;;;;;;;;;;;;;;5027265;28;3148;-63
2022/10/21 05:34:03;;;;;;;;;;;;;;;;;;5059591;28;4789;-59
2022/10/21 05:36:28;;;;;;;;;;;;;;;;;;5046220;28;5204;-66
2022/10/21 05:38:54;;;;;;;;;;;;;;;;;;5047550;28;4529;-59
2022/10/21 05:41:19;;;;;;;;;;;;;;;;;;5044736;28;4936;-67
2022/10/21 05:43:44;;;;;;;;;;;;;;;;;;5034176;28;3321;-69
2022/10/21 05:46:10;;;;;;;;;;;;;;;;;;5033367;28;5075;-67
2022/10/21 05:48:35;;;;;;;;;;;;;;;;;;5043003;28;5394;-68
2022/10/21 05:51:01;;;;;;;;;;;;;;;;;;5031913;28;4924;-68
2022/10/21 05:53:26;;;;;;;;;;;;;;;;;;5028913;28;5015;-67
2022/10/21 05:55:58;;;;;;;;;;;;;;;;;;5028965;28;5014;-68
2022/10/21 05:58:23;;;;;;;;;;;;;;;;;;5029183;28;1044;-65
2022/10/21 06:00:49;;;;;;;;;;;;;;;;;;5028552;28;4387;-65
2022/10/21 06:03:14;;;;;;;;;;;;;;;;;;5040730;28;5123;-67
2022/10/21 06:05:39;;;;;;;;;;;;;;;;;;5029931;28;5104;-67
2022/10/21 06:08:05;;;;;;;;;;;;;;;;;;5029652;28;5106;-68
2022/10/21 06:10:30;;;;;;;;;;;;;;;;;;5030032;28;1042;-65
2022/10/21 06:12:55;;;;;;;;;;;;;;;;;;5028996;28;4940;-68
2022/10/21 06:15:20;;;;;;;;;;;;;;;;;;5029157;28;4989;-69
2022/10/21 06:17:46;;;;;;;;;;;;;;;;;;5029003;28;4466;-67
2022/10/21 06:20:11;;;;;;;;;;;;;;;;;;5022455;28;5080;-67
2022/10/21 06:22:36;;;;;;;;;;;;;;;;;;5019093;28;3119;-67
2022/10/21 06:25:01;;;;;;;;;;;;;;;;;;5028741;28;5122;-67
2022/10/21 06:27:27;;;;;;;;;;;;;;;;;;5029071;28;5184;-66
2022/10/21 06:29:52;;;;;;;;;;;;;;;;;;5029194;28;5130;-68
2022/10/21 06:32:17;;;;;;;;;;;;;;;;;;5029198;28;4973;-65
2022/10/21 06:34:42;;;;;;;;;;;;;;;;;;5029466;28;1094;-65
2022/10/21 06:37:08;;;;;;;;;;;;;;;;;;5027724;28;5142;-63
2022/10/21 06:39:33;;;;;;;;;;;;;;;;;;5010960;28;4994;-64
2022/10/21 06:41:58;;;;;;;;;;;;;;;;;;5025690;28;4984;-63
2022/10/21 06:44:23;;;;;;;;;;;;;;;;;;5028849;28;4985;-63
2022/10/21 06:46:49;;;;;;;;;;;;;;;;;;5010999;28;4848;-66
2022/10/21 06:49:14;;;;;;;;;;;;;;;;;;5029032;28;5000;-64
2022/10/21 06:51:39;;;;;;;;;;;;;;;;;;5023161;28;4911;-64
2022/10/21 06:54:04;;;;;;;;;;;;;;;;;;5028312;28;5227;-66
2022/10/21 06:56:30;;;;;;;;;;;;;;;;;;5028556;28;5046;-66
2022/10/21 06:58:56;;;;;;;;;;;;;;;;;;5028576;28;4640;-66
2022/10/21 07:01:22;;;;;;;;;;;;;;;;;;5028451;28;1578;-67
2022/10/21 07:03:48;;;;;;;;;;;;;;;;;;4993018;28;5082;-63
2022/10/21 07:06:13;;;;;;;;;;;;;;;;;;5028410;28;4985;-67
2022/10/21 07:08:38;;;;;;;;;;;;;;;;;;5028174;28;5334;-63
2022/10/21 07:11:04;;;;;;;;;;;;;;;;;;5026971;28;4499;-64
2022/10/21 07:13:29;;;;;;;;;;;;;;;;;;5028959;28;1161;-65
2022/10/21 07:16:01;;;;;;;;;;;;;;;;;;5010729;28;4654;-66
2022/10/21 07:18:26;;;;;;;;;;;;;;;;;;5027937;28;5104;-65
2022/10/21 07:20:51;;;;;;;;;;;;;;;;;;5024576;28;5009;-67
2022/10/21 07:23:17;;;;;;;;;;;;;;;;;;5027033;28;4707;-67
2022/10/21 07:25:42;;;;;;;;;;;;;;;;;;5017897;28;3121;-66
2022/10/21 07:28:07;;;;;;;;;;;;;;;;;;5027396;28;4843;-63
2022/10/21 07:30:37;;;;;;;;;;;;;;;;;;5027671;28;4616;-66
2022/10/21 07:33:02;;;;;;;;;;;;;;;;;;5028090;28;5447;-66
2022/10/21 07:35:28;;;;;;;;;;;;;;;;;;5028076;28;5004;-67
2022/10/21 07:37:53;;;;;;;;;;;;;;;;;;5028056;28;5010;-67
2022/10/21 07:40:18;;;;;;;;;;;;;;;;;;5028354;28;900;-64
2022/10/21 07:42:43;;;;;;;;;;;;;;;;;;5023410;28;4950;-65
2022/10/21 07:45:09;;;;;;;;;;;;;;;;;;5028108;28;4983;-65
2022/10/21 07:47:34;;;;;;;;;;;;;;;;;;5027995;28;5036;-66
2022/10/21 07:49:59;;;;;;;;;;;;;;;;;;5024816;28;5114;-66
2022/10/21 07:52:25;;;;;;;;;;;;;;;;;;5026023;28;3137;-65
2022/10/21 07:54:51;;;;;;;;;;;;;;;;;;5027795;28;5094;-64
2022/10/21 07:57:16;;;;;;;;;;;;;;;;;;5024919;28;5322;-63
2022/10/21 07:59:41;;;;;;;;;;;;;;;;;;5027652;28;5063;-64
2022/10/21 08:02:08;;;;;;;;;;;;;;;;;;5027563;28;4476;-66
2022/10/21 08:04:33;;;;;;;;;;;;;;;;;;5029755;28;3161;-67
2022/10/21 08:06:58;;;;;;;;;;;;;;;;;;5029529;28;4918;-64
2022/10/21 08:09:25;;;;;;;;;;;;;;;;;;5047520;28;5022;-65
2022/10/21 08:11:50;;;;;;;;;;;;;;;;;;5047407;28;5364;-65
2022/10/21 08:14:15;;;;;;;;;;;;;;;;;;5050035;28;4953;-62
2022/10/21 08:16:41;;;;;;;;;;;;;;;;;;5040479;28;2187;-65
2022/10/21 08:19:06;;;;;;;;;;;;;;;;;;5041123;28;5020;-66
2022/10/21 08:21:31;;;;;;;;;;;;;;;;;;5031755;28;5070;-64
2022/10/21 08:23:57;;;;;;;;;;;;;;;;;;5031239;28;5160;-64
2022/10/21 08:26:22;;;;;;;;;;;;;;;;;;5037073;28;5147;-64
2022/10/21 08:28:47;;;;;;;;;;;;;;;;;;5038767;28;5225;-62
2022/10/21 08:31:14;;;;;;;;;;;;;;;;;;5049000;28;3234;-66
2022/10/21 08:33:39;;;;;;;;;;;;;;;;;;5049418;28;5068;-66
2022/10/21 08:36:05;;;;;;;;;;;;;;;;;;5030492;28;5014;-68
2022/10/21 08:38:30;;;;;;;;;;;;;;;;;;5030521;28;5063;-68
2022/10/21 08:40:55;;;;;;;;;;;;;;;;;;5031138;28;4965;-67
2022/10/21 08:43:24;;;;;;;;;;;;;;;;;;5029635;28;1153;-65
2022/10/21 08:45:56;;;;;;;;;;;;;;;;;;5013317;28;4353;-67
2022/10/21 08:48:23;;;;;;;;;;;;;;;;;;5030715;28;5316;-66
2022/10/21 08:50:48;;;;;;;;;;;;;;;;;;5007354;28;5456;-65
2022/10/21 08:53:20;;;;;;;;;;;;;;;;;;4993610;28;4654;-66
2022/10/21 08:55:45;;;;;;;;;;;;;;;;;;5011176;28;5372;-64
2022/10/21 08:58:17;;;;;;;;;;;;;;;;;;5014144;28;3108;-65
2022/10/21 09:00:52;;;;;;;;;;;;;;;;;;5019047;28;4991;-64
2022/10/21 09:03:23;;;;;;;;;;;;;;;;;;5038454;28;5003;-63
2022/10/21 09:05:51;;;;;;;;;;;;;;;;;;5033765;28;5026;-61
2022/10/21 09:08:24;;;;;;;;;;;;;;;;;;5029665;28;4543;-65
2022/10/21 09:11:00;;;;;;;;;;;;;;;;;;4996527;28;4951;-66
2022/10/21 09:13:31;;;;;;;;;;;;;;;;;;5013065;28;2485;-67
2022/10/21 09:16:03;;;;;;;;;;;;;;;;;;5029126;28;4942;-67
2022/10/21 09:18:47;;;;;;;;;;;;;;;;;;5028706;28;4412;-64
2022/10/21 09:21:16;;;;;;;;;;;;;;;;;;5024787;28;4863;-61
2022/10/21 09:23:47;;;;;;;;;;;;;;;;;;5027771;28;5116;-67
2022/10/21 09:26:25;;;;;;;;;;;;;;;;;;5030110;28;5269;-64
2022/10/21 09:28:50;;;;;;;;;;;;;;;;;;5029915;28;5082;-66
2022/10/21 09:31:16;;;;;;;;;;;;;;;;;;5023419;28;2801;-66
2022/10/21 09:33:43;;;;;;;;;;;;;;;;;;5025536;28;4605;-66
2022/10/21 09:36:31;;;;;;;;;;;;;;;;;;5010239;28;4735;-60
2022/10/21 09:39:01;;;;;;;;;;;;;;;;;;5019019;28;5177;-68
2022/10/21 09:41:31;;;;;;;;;;;;;;;;;;5012540;28;4441;-67
2022/10/21 09:43:56;;;;;;;;;;;;;;;;;;5010657;28;4990;-66
2022/10/21 09:46:21;;;;;;;;;;;;;;;;;;5030596;28;1106;-67
2022/10/21 09:48:47;;;;;;;;;;;;;;;;;;5012256;28;5125;-67
2022/10/21 09:51:30;;;;;;;;;;;;;;;;;;5027533;28;4942;-64
2022/10/21 09:53:56;;;;;;;;;;;;;;;;;;5018161;28;5120;-67
2022/10/21 09:56:29;;;;;;;;;;;;;;;;;;5011404;28;4663;-66
2022/10/21 09:59:05;;;;;;;;;;;;;;;;;;5028950;28;5346;-65
2022/10/21 10:01:30;;;;;;;;;;;;;;;;;;5009102;28;3335;-66
2022/10/21 10:03:56;;;;;;;;;;;;;;;;;;5029524;28;4902;-67
2022/10/21 10:06:33;;;;;;;;;;;;;;;;;;5029751;28;4874;-66
2022/10/21 10:09:14;;;;;;;;;;;;;;;;;;5026759;28;5201;-66
2022/10/21 10:12:08;;;;;;;;;;;;;;;;;;5009720;28;5082;-65
2022/10/21 10:14:34;;;;;;;;;;;;;;;;;;5005760;28;5000;-63
2022/10/21 10:17:18;;;;;;;;;;;;;;;;;;5029110;28;4671;-67
2022/10/21 10:19:58;;;;;;;;;;;;;;;;;;5029696;28;1209;-64
2022/10/21 10:22:25;;;;;;;;;;;;;;;;;;4991863;28;5216;-64
2022/10/21 10:24:50;;;;;;;;;;;;;;;;;;5009120;28;4439;-67
2022/10/21 10:27:18;;;;;;;;;;;;;;;;;;5008881;28;4447;-67
2022/10/21 10:29:45;;;;;;;;;;;;;;;;;;5022452;28;5007;-66
2022/10/21 10:32:12;;;;;;;;;;;;;;;;;;4980522;28;4546;-64
2022/10/21 10:34:38;;;;;;;;;;;;;;;;;;4977120;28;3160;-68
2022/10/21 10:37:05;;;;;;;;;;;;;;;;;;4990706;28;5187;-65
2022/10/21 10:39:31;;;;;;;;;;;;;;;;;;5010780;28;5561;-65
2022/10/21 10:41:56;;;;;;;;;;;;;;;;;;5025697;28;4577;-67
2022/10/21 10:44:21;;;;;;;;;;;;;;;;;;5028295;28;4950;-67
2022/10/21 10:46:50;;;;;;;;;;;;;;;;;;5010608;28;4941;-67
2022/10/21 10:49:17;;;;;;;;;;;;;;;;;;5028865;28;4851;-66
2022/10/21 10:51:44;;;;;;;;;;;;;;;;;;5009415;28;5003;-67
2022/10/21 10:54:17;;;;;;;;;;;;;;;;;;5027236;28;5066;-65
2022/10/21 10:57:01;;;;;;;;;;;;;;;;;;5010433;28;5366;-67
2022/10/21 10:59:31;;;;;;;;;;;;;;;;;;5020634;28;5019;-65
2022/10/21 11:02:08;;;;;;;;;;;;;;;;;;5027472;28;5077;-66
2022/10/21 11:04:38;;;;;;;;;;;;;;;;;;5028682;28;2129;-66
2022/10/21 11:07:06;;;;;;;;;;;;;;;;;;5026517;28;5054;-66
2022/10/21 11:09:32;;;;;;;;;;;;;;;;;;5026710;28;5072;-65
2022/10/21 11:11:58;;;;;;;;;;;;;;;;;;5027243;28;5036;-67
2022/10/21 11:14:23;;;;;;;;;;;;;;;;;;5010090;28;5132;-68
2022/10/21 11:16:54;;;;;;;;;;;;;;;;;;5027815;28;5051;-65
2022/10/21 11:19:38;;;;;;;;;;;;;;;;;;5008933;28;1095;-67
2022/10/21 11:22:15;;;;;;;;;;;;;;;;;;5023637;28;4871;-66
2022/10/21 11:24:49;;;;;;;;;;;;;;;;;;5005944;28;5001;-65
2022/10/21 11:27:24;;;;;;;;;;;;;;;;;;5027572;28;4800;-68
2022/10/21 11:29:49;;;;;;;;;;;;;;;;;;5027641;28;5016;-68
2022/10/21 11:32:20;;;;;;;;;;;;;;;;;;5027181;28;4967;-66
2022/10/21 11:35:06;;;;;;;;;;;;;;;;;;5007498;28;5051;-66
2022/10/21 11:38:03;;;;;;;;;;;;;;;;;;4986463;28;2994;-64
2022/10/21 11:40:34;;;;;;;;;;;;;;;;;;4994347;28;5180;-67
2022/10/21 11:43:22;;;;;;;;;;;;;;;;;;5006702;28;4940;-67
2022/10/21 11:45:54;;;;;;;;;;;;;;;;;;5009614;28;5051;-67
2022/10/21 11:48:19;;;;;;;;;;;;;;;;;;4995519;28;5374;-67
2022/10/21 11:50:59;;;;;;;;;;;;;;;;;;5030516;28;5234;-67
2022/10/21 11:53:35;;;;;;;;;;;;;;;;;;5031752;28;4826;-68
2022/10/21 11:56:18;;;;;;;;;;;;;;;;;;5015004;28;5102;-64
2022/10/21 11:58:56;;;;;;;;;;;;;;;;;;5034415;28;1154;-67
2022/10/21 12:01:26;;;;;;;;;;;;;;;;;;5013873;28;5031;-65
2022/10/21 12:04:03;;;;;;;;;;;;;;;;;;5013694;28;4960;-63
2022/10/21 12:06:33;;;;;;;;;;;;;;;;;;5031556;28;4979;-66
2022/10/21 12:08:59;;;;;;;;;;;;;;;;;;5013621;28;5014;-67
2022/10/21 12:11:30;;;;;;;;;;;;;;;;;;5030237;28;4812;-67
2022/10/21 12:13:56;;;;;;;;;;;;;;;;;;5013493;28;5053;-68
2022/10/21 12:16:23;;;;;;;;;;;;;;;;;;5009647;28;3387;-66
2022/10/21 12:18:52;;;;;;;;;;;;;;;;;;5013518;28;5095;-65
2022/10/21 12:21:18;;;;;;;;;;;;;;;;;;5020533;28;5347;-65
2022/10/21 12:23:44;;;;;;;;;;;;;;;;;;5017762;28;5071;-66
2022/10/21 12:26:09;;;;;;;;;;;;;;;;;;5013446;28;5136;-68
2022/10/21 12:28:34;;;;;;;;;;;;;;;;;;5031943;28;1942;-67
2022/10/21 12:31:17;;;;;;;;;;;;;;;;;;5029738;28;5016;-67
2022/10/21 12:33:43;;;;;;;;;;;;;;;;;;5031420;28;4482;-65
2022/10/21 12:36:14;;;;;;;;;;;;;;;;;;5013253;28;4483;-62
2022/10/21 12:38:43;;;;;;;;;;;;;;;;;;5031057;28;4893;-67
2022/10/21 12:41:20;;;;;;;;;;;;;;;;;;5030052;28;5380;-61
2022/10/21 12:44:01;;;;;;;;;;;;;;;;;;5029667;28;5125;-64
2022/10/21 12:46:26;;;;;;;;;;;;;;;;;;5010254;28;3169;-67
2022/10/21 12:48:52;;;;;;;;;;;;;;;;;;5031073;28;4971;-67
2022/10/21 12:51:27;;;;;;;;;;;;;;;;;;5029860;28;4866;-62
2022/10/21 12:53:54;;;;;;;;;;;;;;;;;;5030815;28;4671;-65
2022/10/21 12:56:27;;;;;;;;;;;;;;;;;;4993437;28;4961;-67
2022/10/21 12:58:56;;;;;;;;;;;;;;;;;;5010202;28;5194;-64
2022/10/21 13:01:41;;;;;;;;;;;;;;;;;;5013609;28;898;-68
2022/10/21 13:04:39;;;;;;;;;;;;;;;;;;5030280;28;4946;-67
2022/10/21 13:07:13;;;;;;;;;;;;;;;;;;4985849;28;4971;-66
2022/10/21 13:09:39;;;;;;;;;;;;;;;;;;5029119;28;4740;-65
2022/10/21 13:12:07;;;;;;;;;;;;;;;;;;5030421;28;4759;-66
2022/10/21 13:14:41;;;;;;;;;;;;;;;;;;5030194;28;5117;-66
2022/10/21 13:17:19;;;;;;;;;;;;;;;;;;5028396;28;4993;-68
2022/10/21 13:19:44;;;;;;;;;;;;;;;;;;5029572;28;3178;-67
2022/10/21 13:22:40;;;;;;;;;;;;;;;;;;5027096;28;5156;-66
2022/10/21 13:25:14;;;;;;;;;;;;;;;;;;5030071;28;4891;-67
2022/10/21 13:27:40;;;;;;;;;;;;;;;;;;5027749;28;4650;-65
2022/10/21 13:30:05;;;;;;;;;;;;;;;;;;5030283;28;5213;-65
2022/10/21 13:32:36;;;;;;;;;;;;;;;;;;5030254;28;4421;-66
2022/10/21 13:35:22;;;;;;;;;;;;;;;;;;4995862;28;5092;-68
2022/10/21 13:38:06;;;;;;;;;;;;;;;;;;5029194;28;5062;-66
2022/10/21 13:40:34;;;;;;;;;;;;;;;;;;5030779;28;931;-67
2022/10/21 13:43:01;;;;;;;;;;;;;;;;;;5009225;28;5232;-67
2022/10/21 13:45:27;;;;;;;;;;;;;;;;;;5011964;28;5021;-67
2022/10/21 13:48:05;;;;;;;;;;;;;;;;;;5029286;28;4877;-65
2022/10/21 13:50:37;;;;;;;;;;;;;;;;;;5024933;28;5205;-66
2022/10/21 13:53:04;;;;;;;;;;;;;;;;;;5027827;28;5184;-68
2022/10/21 13:55:29;;;;;;;;;;;;;;;;;;5029273;28;2994;-66
2022/10/21 13:57:55;;;;;;;;;;;;;;;;;;5025138;28;5070;-64
2022/10/21 14:00:24;;;;;;;;;;;;;;;;;;5029478;28;4496;-65
2022/10/21 14:02:51;;;;;;;;;;;;;;;;;;5029208;28;4421;-67
2022/10/21 14:05:29;;;;;;;;;;;;;;;;;;5025390;28;5176;-67
2022/10/21 14:07:54;;;;;;;;;;;;;;;;;;5029176;28;5025;-66
2022/10/21 14:10:20;;;;;;;;;;;;;;;;;;5029220;28;890;-66
2022/10/21 14:12:46;;;;;;;;;;;;;;;;;;5028798;28;5060;-66
2022/10/21 14:15:21;;;;;;;;;;;;;;;;;;5010092;28;4958;-67
2022/10/21 14:17:51;;;;;;;;;;;;;;;;;;4994074;28;5133;-68
2022/10/21 14:20:18;;;;;;;;;;;;;;;;;;5027655;28;4459;-65
2022/10/21 14:22:47;;;;;;;;;;;;;;;;;;4991920;28;1045;-66
2022/10/21 14:25:14;;;;;;;;;;;;;;;;;;4992688;28;4387;-67
2022/10/21 14:27:39;;;;;;;;;;;;;;;;;;5024106;28;4765;-67
2022/10/21 14:30:05;;;;;;;;;;;;;;;;;;5005017;28;5124;-63
2022/10/21 14:32:30;;;;;;;;;;;;;;;;;;5019121;28;4682;-66
2022/10/21 14:35:01;;;;;;;;;;;;;;;;;;5022824;28;4623;-64
2022/10/21 14:37:32;;;;;;;;;;;;;;;;;;5028795;28;1161;-67
2022/10/21 14:40:08;;;;;;;;;;;;;;;;;;5029449;28;5070;-64
2022/10/21 14:42:33;;;;;;;;;;;;;;;;;;5022738;28;5024;-67
2022/10/21 14:44:59;;;;;;;;;;;;;;;;;;5001340;28;4520;-67
2022/10/21 14:47:24;;;;;;;;;;;;;;;;;;5026944;28;5115;-67
2022/10/21 14:49:50;;;;;;;;;;;;;;;;;;5027470;28;5081;-66
2022/10/21 14:52:24;;;;;;;;;;;;;;;;;;5008528;28;1736;-65
2022/10/21 14:54:56;;;;;;;;;;;;;;;;;;5026704;28;4864;-66
2022/10/21 14:57:30;;;;;;;;;;;;;;;;;;5025355;28;5052;-59
2022/10/21 14:59:56;;;;;;;;;;;;;;;;;;5024661;28;4939;-67
2022/10/21 15:02:22;;;;;;;;;;;;;;;;;;5007670;28;4503;-67
2022/10/21 15:04:49;;;;;;;;;;;;;;;;;;5007028;28;5161;-67
2022/10/21 15:07:15;;;;;;;;;;;;;;;;;;5026879;28;2912;-66
2022/10/21 15:09:57;;;;;;;;;;;;;;;;;;5008857;28;4612;-66
2022/10/21 15:12:22;;;;;;;;;;;;;;;;;;5008648;28;4876;-65
2022/10/21 15:14:47;;;;;;;;;;;;;;;;;;5027179;28;4523;-61
2022/10/21 15:17:13;;;;;;;;;;;;;;;;;;5028349;28;5003;-65
2022/10/21 15:19:46;;;;;;;;;;;;;;;;;;5010508;28;3283;-59
2022/10/21 15:22:20;;;;;;;;;;;;;;;;;;5011931;28;5661;-66
2022/10/21 15:24:45;;;;;;;;;;;;;;;;;;4994641;28;5150;-65
2022/10/21 15:27:14;;;;;;;;;;;;;;;;;;5012611;28;5014;-66
2022/10/21 15:29:41;;;;;;;;;;;;;;;;;;4994822;28;5024;-67
2022/10/21 15:32:08;;;;;;;;;;;;;;;;;;5012506;28;4416;-67
2022/10/21 15:34:33;;;;;;;;;;;;;;;;;;5015842;28;2731;-65
2022/10/21 15:36:59;;;;;;;;;;;;;;;;;;5031342;28;5130;-67
2022/10/21 15:39:24;;;;;;;;;;;;;;;;;;5032373;28;4602;-67
2022/10/21 15:41:53;;;;;;;;;;;;;;;;;;5030974;28;4970;-68
2022/10/21 15:44:22;;;;;;;;;;;;;;;;;;5014762;28;5162;-68
2022/10/21 15:46:49;;;;;;;;;;;;;;;;;;5016939;28;5106;-66
2022/10/21 15:49:18;;;;;;;;;;;;;;;;;;5049940;28;4916;-67
2022/10/21 15:51:43;;;;;;;;;;;;;;;;;;5022711;28;4645;-65
2022/10/21 15:54:08;;;;;;;;;;;;;;;;;;5030436;28;5148;-60
2022/10/21 15:56:33;;;;;;;;;;;;;;;;;;5030998;28;5135;-61
2022/10/21 15:58:59;;;;;;;;;;;;;;;;;;5031844;28;5571;-65
2022/10/21 16:01:25;;;;;;;;;;;;;;;;;;5032476;28;878;-65
2022/10/21 16:03:50;;;;;;;;;;;;;;;;;;5032087;28;5081;-67
2022/10/21 16:06:16;;;;;;;;;;;;;;;;;;5032156;28;4843;-67
2022/10/21 16:08:41;;;;;;;;;;;;;;;;;;5026138;28;5277;-66
2022/10/21 16:11:16;;;;;;;;;;;;;;;;;;5030408;28;4521;-68
2022/10/21 16:13:41;;;;;;;;;;;;;;;;;;5031990;28;1031;-65
2022/10/21 16:16:17;;;;;;;;;;;;;;;;;;5013588;28;4415;-66
2022/10/21 16:18:42;;;;;;;;;;;;;;;;;;5013937;28;5047;-67
2022/10/21 16:21:09;;;;;;;;;;;;;;;;;;5031066;28;5083;-64
2022/10/21 16:23:34;;;;;;;;;;;;;;;;;;5014132;28;5162;-63
2022/10/21 16:25:59;;;;;;;;;;;;;;;;;;5030236;28;5140;-64
2022/10/21 16:28:24;;;;;;;;;;;;;;;;;;5001001;28;3126;-65
2022/10/21 16:30:50;;;;;;;;;;;;;;;;;;5029994;28;4552;-66
2022/10/21 16:33:15;;;;;;;;;;;;;;;;;;5029636;28;5168;-66
2022/10/21 16:35:41;;;;;;;;;;;;;;;;;;5029980;28;5142;-66
2022/10/21 16:38:07;;;;;;;;;;;;;;;;;;5003259;28;5038;-66
2022/10/21 16:40:33;;;;;;;;;;;;;;;;;;5010465;28;3221;-66
2022/10/21 16:42:58;;;;;;;;;;;;;;;;;;5026657;28;5023;-63
2022/10/21 16:45:26;;;;;;;;;;;;;;;;;;5024857;28;5092;-66
2022/10/21 16:47:52;;;;;;;;;;;;;;;;;;4991008;28;5069;-67
2022/10/21 16:50:18;;;;;;;;;;;;;;;;;;4998255;28;5120;-65
2022/10/21 16:52:43;;;;;;;;;;;;;;;;;;5019398;28;1486;-67
2022/10/21 16:55:09;;;;;;;;;;;;;;;;;;5021725;28;4997;-61
2022/10/21 16:57:34;;;;;;;;;;;;;;;;;;5012602;28;4922;-67
2022/10/21 16:59:59;;;;;;;;;;;;;;;;;;5030337;28;4613;-68
2022/10/21 17:02:25;;;;;;;;;;;;;;;;;;5030338;28;4602;-68
2022/10/21 17:04:50;;;;;;;;;;;;;;;;;;5030022;28;4987;-67
2022/10/21 17:07:15;;;;;;;;;;;;;;;;;;5029130;28;3187;-65
2022/10/21 17:09:40;;;;;;;;;;;;;;;;;;5011860;28;5145;-65